createdAt,value
2024-03-08T00:00:10.610Z,22.54
2024-03-08T00:02:39.799Z,22.47
2024-03-08T00:05:07.331Z,22.70
2024-03-08T00:07:34.190Z,22.76
2024-03-08T00:10:00.967Z,22.90
2024-03-08T00:12:27.712Z,22.80
2024-03-08T00:14:54.466Z,23.00
2024-03-08T00:17:21.432Z,23.27
2024-03-08T00:19:49.566Z,22.97
2024-03-08T00:22:16.346Z,23.37
2024-03-08T00:24:43.121Z,23.32
2024-03-08T00:27:09.985Z,23.00
2024-03-08T00:29:36.825Z,23.06
2024-03-08T00:32:03.607Z,23.18
2024-03-08T00:34:30.334Z,23.49
2024-03-08T00:36:58.380Z,23.19
2024-03-08T00:39:25.216Z,24.00
2024-03-08T00:41:51.986Z,23.95
2024-03-08T00:44:18.788Z,23.15
2024-03-08T00:46:45.495Z,23.88
2024-03-08T00:49:12.215Z,23.92
2024-03-08T00:51:38.959Z,24.73
2024-03-08T00:54:07.205Z,25.09
2024-03-08T00:56:34.039Z,24.82
2024-03-08T00:59:00.787Z,24.25
2024-03-08T01:01:27.588Z,24.11
2024-03-08T01:03:54.391Z,24.14
2024-03-08T01:06:21.089Z,24.11
2024-03-08T01:08:47.852Z,24.64
2024-03-08T01:11:16.000Z,24.89
2024-03-08T01:13:42.793Z,23.93
2024-03-08T01:16:10.588Z,23.98
2024-03-08T01:18:38.322Z,23.56
2024-03-08T01:21:05.658Z,23.17
2024-03-08T01:23:32.428Z,23.99
2024-03-08T01:25:59.164Z,23.98
2024-03-08T01:28:27.245Z,24.16
2024-03-08T01:30:53.946Z,23.94
2024-03-08T01:33:20.697Z,23.90
2024-03-08T01:35:47.533Z,24.45
2024-03-08T01:38:14.228Z,23.31
2024-03-08T01:40:40.986Z,23.96
2024-03-08T01:43:19.329Z,24.05
2024-03-08T01:45:47.432Z,23.77
2024-03-08T01:48:14.976Z,23.37
2024-03-08T01:50:41.817Z,23.27
2024-03-08T01:53:08.699Z,23.32
2024-03-08T01:55:35.444Z,22.77
2024-03-08T01:58:02.162Z,22.96
2024-03-08T02:00:28.900Z,22.44
2024-03-08T02:02:56.979Z,22.92
2024-03-08T02:05:23.696Z,22.70
2024-03-08T02:07:50.466Z,22.29
2024-03-08T02:10:17.149Z,22.40
2024-03-08T02:12:43.917Z,22.03
2024-03-08T02:15:10.782Z,22.61
2024-03-08T02:17:37.703Z,22.50
2024-03-08T02:20:06.679Z,22.52
2024-03-08T02:22:34.734Z,22.64
2024-03-08T02:25:01.547Z,22.57
2024-03-08T02:27:28.259Z,22.11
2024-03-08T02:29:55.865Z,22.50
2024-03-08T02:32:22.663Z,21.84
2024-03-08T02:34:49.426Z,22.29
2024-03-08T02:37:16.131Z,22.33
2024-03-08T02:39:44.234Z,21.99
2024-03-08T02:42:11.014Z,21.34
2024-03-08T02:44:37.901Z,21.73
2024-03-08T02:47:04.914Z,21.70
2024-03-08T02:49:31.760Z,21.31
2024-03-08T02:51:58.517Z,21.67
2024-03-08T02:54:25.184Z,21.61
2024-03-08T02:56:53.366Z,22.28
2024-03-08T02:59:20.058Z,22.09
2024-03-08T03:01:46.783Z,21.79
2024-03-08T03:04:13.545Z,21.98
2024-03-08T03:06:40.268Z,21.85
2024-03-08T03:09:07.099Z,21.87
2024-03-08T03:11:34.049Z,22.70
2024-03-08T03:14:02.192Z,22.32
2024-03-08T03:16:28.910Z,22.36
2024-03-08T03:18:55.708Z,22.51
2024-03-08T03:21:22.494Z,23.52
2024-03-08T03:23:49.303Z,23.70
2024-03-08T03:26:16.211Z,23.90
2024-03-08T03:28:42.927Z,24.25
2024-03-08T03:31:11.095Z,25.33
2024-03-08T03:33:37.970Z,25.23
2024-03-08T03:36:05.632Z,25.48
2024-03-08T03:38:32.383Z,26.45
2024-03-08T03:40:59.105Z,25.78
2024-03-08T03:43:25.778Z,26.17
2024-03-08T03:45:52.513Z,26.57
2024-03-08T03:48:20.648Z,25.20
2024-03-08T03:50:47.447Z,25.24
2024-03-08T03:53:14.197Z,25.87
2024-03-08T03:55:41.920Z,26.37
2024-03-08T03:58:08.918Z,27.23
2024-03-08T04:00:35.734Z,27.48
2024-03-08T04:03:02.649Z,27.62
2024-03-08T04:05:30.894Z,27.59
2024-03-08T04:07:57.621Z,27.08
2024-03-08T04:10:24.370Z,26.66
2024-03-08T04:12:51.070Z,25.74
2024-03-08T04:15:17.854Z,25.61
2024-03-08T04:17:44.767Z,24.39
2024-03-08T04:20:12.071Z,23.90
2024-03-08T04:22:40.431Z,23.02
2024-03-08T04:25:07.828Z,22.76
2024-03-08T04:27:34.565Z,21.47
2024-03-08T04:30:01.672Z,21.15
2024-03-08T04:32:28.605Z,20.28
2024-03-08T04:34:55.545Z,20.51
2024-03-08T04:37:22.286Z,20.84
2024-03-08T04:39:50.335Z,20.01
2024-03-08T04:42:17.248Z,20.70
2024-03-08T04:44:44.081Z,20.33
2024-03-08T04:47:10.838Z,19.78
2024-03-08T04:49:37.585Z,19.57
2024-03-08T04:52:04.285Z,19.31
2024-03-08T04:54:31.144Z,18.77
2024-03-08T04:56:59.267Z,18.52
2024-03-08T04:59:26.031Z,18.05
2024-03-08T05:01:52.726Z,18.82
2024-03-08T05:04:19.424Z,18.68
2024-03-08T05:06:46.128Z,18.93
2024-03-08T05:09:12.888Z,18.31
2024-03-08T05:11:39.662Z,18.79
2024-03-08T05:14:07.715Z,19.30
2024-03-08T05:16:34.438Z,19.14
2024-03-08T05:19:01.230Z,18.89
2024-03-08T05:21:27.924Z,18.89
2024-03-08T05:23:54.712Z,19.83
2024-03-08T05:26:21.422Z,20.18
2024-03-08T05:28:48.210Z,19.97
2024-03-08T05:31:20.680Z,19.70
2024-03-08T05:33:47.524Z,20.15
2024-03-08T05:36:14.288Z,20.12
2024-03-08T05:38:41.047Z,20.71
2024-03-08T05:41:07.790Z,20.34
2024-03-08T05:43:34.530Z,20.19
2024-03-08T05:46:01.292Z,20.41
2024-03-08T05:48:29.462Z,20.84
2024-03-08T05:50:56.221Z,20.49
2024-03-08T05:53:22.992Z,20.25
2024-03-08T05:55:49.707Z,19.98
2024-03-08T05:58:16.532Z,19.94
2024-03-08T06:00:43.332Z,20.21
2024-03-08T06:03:10.100Z,20.37
2024-03-08T06:05:38.507Z,21.35
2024-03-08T06:08:05.976Z,20.37
2024-03-08T06:10:32.743Z,20.41
2024-03-08T06:12:59.453Z,20.79
2024-03-08T06:15:26.292Z,19.94
2024-03-08T06:17:53.081Z,20.49
2024-03-08T06:20:19.836Z,20.55
2024-03-08T06:22:47.912Z,20.33
2024-03-08T06:25:14.657Z,20.17
2024-03-08T06:27:41.389Z,19.76
2024-03-08T06:30:08.894Z,19.39
2024-03-08T06:32:35.743Z,19.33
2024-03-08T06:35:02.727Z,19.78
2024-03-08T06:37:29.426Z,19.47
2024-03-08T06:39:57.551Z,20.13
2024-03-08T06:42:24.329Z,19.87
2024-03-08T06:44:51.234Z,19.06
2024-03-08T06:47:17.996Z,19.53
2024-03-08T06:49:44.765Z,19.23
2024-03-08T06:52:11.588Z,19.22
2024-03-08T06:54:38.368Z,18.36
2024-03-08T06:57:06.656Z,18.41
2024-03-08T06:59:33.505Z,18.90
2024-03-08T07:02:00.334Z,21.60
2024-03-08T07:04:27.156Z,20.14
2024-03-08T07:06:53.959Z,18.33
2024-03-08T07:09:20.696Z,18.64
2024-03-08T07:11:47.574Z,18.45
2024-03-08T07:14:15.736Z,17.29
2024-03-08T07:16:42.608Z,17.39
2024-03-08T07:19:09.365Z,16.95
2024-03-08T07:21:36.088Z,18.38
2024-03-08T07:24:02.865Z,17.88
2024-03-08T07:26:29.561Z,17.85
2024-03-08T07:28:56.280Z,16.99
2024-03-08T07:31:24.341Z,17.50
2024-03-08T07:33:51.307Z,17.25
2024-03-08T07:36:18.169Z,17.46
2024-03-08T07:38:44.987Z,17.42
2024-03-08T07:41:13.127Z,16.94
2024-03-08T07:43:41.036Z,17.51
2024-03-08T07:46:07.763Z,16.87
2024-03-08T07:48:36.085Z,16.51
2024-03-08T07:51:02.910Z,16.76
2024-03-08T07:53:29.600Z,17.14
2024-03-08T07:55:56.409Z,17.54
2024-03-08T07:58:23.222Z,17.35
2024-03-08T08:00:49.936Z,17.53
2024-03-08T08:03:16.728Z,17.04
2024-03-08T08:05:44.798Z,16.70
2024-03-08T08:08:11.724Z,17.14
2024-03-08T08:10:38.844Z,17.08
2024-03-08T08:13:06.193Z,16.58
2024-03-08T08:15:33.112Z,16.87
2024-03-08T08:17:59.849Z,16.53
2024-03-08T08:20:26.643Z,17.11
2024-03-08T08:22:54.761Z,16.31
2024-03-08T08:25:21.888Z,17.17
2024-03-08T08:27:48.734Z,16.73
2024-03-08T08:30:15.828Z,16.02
2024-03-08T08:32:42.594Z,15.84
2024-03-08T08:35:09.420Z,16.00
2024-03-08T08:37:36.249Z,15.70
2024-03-08T08:40:05.336Z,16.10
2024-03-08T08:42:32.104Z,16.45
2024-03-08T08:45:03.006Z,16.50
2024-03-08T08:47:35.816Z,17.00
2024-03-08T08:50:02.672Z,16.48
2024-03-08T08:52:29.470Z,16.20
2024-03-08T08:54:56.264Z,17.15
2024-03-08T08:57:24.417Z,17.25
2024-03-08T08:59:51.130Z,17.16
2024-03-08T09:02:18.519Z,16.94
2024-03-08T09:04:45.724Z,16.30
2024-03-08T09:07:12.462Z,15.56
2024-03-08T09:09:39.147Z,16.07
2024-03-08T09:12:06.419Z,18.36
2024-03-08T09:14:34.823Z,28.68
2024-03-08T09:17:01.720Z,16.08
2024-03-08T09:19:28.456Z,15.57
2024-03-08T09:21:55.224Z,15.66
2024-03-08T09:24:21.942Z,15.17
2024-03-08T09:26:48.684Z,14.96
2024-03-08T09:29:15.401Z,14.62
2024-03-08T09:31:43.520Z,13.80
2024-03-08T09:34:13.455Z,13.41
2024-03-08T09:36:44.066Z,13.35
2024-03-08T09:39:10.757Z,12.64
2024-03-08T09:41:37.504Z,13.53
2024-03-08T09:44:04.705Z,13.85
2024-03-08T09:46:31.476Z,13.73
2024-03-08T09:48:59.521Z,14.06
2024-03-08T09:51:28.782Z,13.46
2024-03-08T09:53:55.484Z,13.39
2024-03-08T09:56:22.597Z,13.83
2024-03-08T09:58:49.436Z,14.12
2024-03-08T10:01:16.257Z,14.61
2024-03-08T10:03:43.034Z,14.78
2024-03-08T10:06:11.077Z,13.64
2024-03-08T10:08:37.783Z,13.47
2024-03-08T10:11:04.840Z,13.16
2024-03-08T10:13:31.858Z,13.15
2024-03-08T10:15:58.584Z,13.49
2024-03-08T10:18:25.324Z,13.73
2024-03-08T10:21:14.152Z,13.62
2024-03-08T10:23:40.947Z,13.20
2024-03-08T10:26:11.706Z,12.89
2024-03-08T10:28:38.449Z,12.66
2024-03-08T10:31:05.174Z,12.50
2024-03-08T10:33:31.942Z,12.11
2024-03-08T10:35:58.638Z,12.12
2024-03-08T10:38:26.733Z,12.17
2024-03-08T10:40:53.533Z,12.61
2024-03-08T10:43:26.859Z,12.61
2024-03-08T10:45:57.743Z,24.54
2024-03-08T10:48:28.416Z,13.87
2024-03-08T10:50:55.174Z,12.41
2024-03-08T10:53:21.968Z,12.22
2024-03-08T10:55:50.078Z,12.32
2024-03-08T10:58:16.954Z,12.39
2024-03-08T11:00:43.752Z,12.42
2024-03-08T11:03:30.958Z,12.24
2024-03-08T11:05:57.661Z,12.37
2024-03-08T11:08:24.458Z,12.89
2024-03-08T11:10:53.544Z,13.25
2024-03-08T11:13:35.871Z,14.23
2024-03-08T11:16:02.803Z,14.16
2024-03-08T11:18:29.921Z,14.11
2024-03-08T11:20:56.800Z,14.24
2024-03-08T11:23:23.668Z,13.88
2024-03-08T11:25:51.754Z,13.44
2024-03-08T11:28:19.643Z,13.61
2024-03-08T11:30:47.214Z,13.38
2024-03-08T11:33:14.068Z,13.47
2024-03-08T11:35:41.059Z,13.63
2024-03-08T11:38:09.018Z,13.63
2024-03-08T11:40:36.629Z,13.96
2024-03-08T11:43:05.128Z,13.98
2024-03-08T11:45:31.889Z,13.96
2024-03-08T11:47:59.060Z,13.53
2024-03-08T11:50:25.851Z,14.16
2024-03-08T11:52:52.615Z,13.43
2024-03-08T11:55:19.466Z,13.66
2024-03-08T11:57:46.396Z,13.94
2024-03-08T12:00:17.945Z,12.95
2024-03-08T12:02:44.749Z,12.44
2024-03-08T12:05:11.561Z,13.14
2024-03-08T12:07:38.431Z,13.58
2024-03-08T12:10:18.332Z,14.03
2024-03-08T12:12:45.483Z,13.93
2024-03-08T12:15:12.265Z,14.48
2024-03-08T12:17:40.850Z,14.16
2024-03-08T12:20:17.304Z,13.61
2024-03-08T12:22:44.182Z,13.41
2024-03-08T12:25:11.913Z,12.80
2024-03-08T12:27:38.835Z,13.95
2024-03-08T12:30:20.159Z,13.69
2024-03-08T12:32:52.284Z,14.32
2024-03-08T12:35:19.123Z,14.48
2024-03-08T12:37:45.938Z,14.08
2024-03-08T12:40:12.816Z,14.18
2024-03-08T12:42:39.559Z,14.96
2024-03-08T12:45:07.407Z,14.92
2024-03-08T12:47:34.180Z,15.13
2024-03-08T12:50:02.331Z,15.24
2024-03-08T12:52:29.198Z,14.77
2024-03-08T12:54:56.009Z,15.36
2024-03-08T12:57:22.785Z,15.42
2024-03-08T12:59:49.644Z,15.50
2024-03-08T13:02:16.569Z,15.59
2024-03-08T13:04:43.483Z,15.61
2024-03-08T13:07:11.646Z,15.63
2024-03-08T13:09:38.345Z,16.36
2024-03-08T13:12:05.754Z,16.37
2024-03-08T13:14:32.504Z,16.82
2024-03-08T13:16:59.289Z,16.99
2024-03-08T13:19:26.163Z,16.95
2024-03-08T13:21:52.989Z,16.86
2024-03-08T13:24:21.077Z,16.61
2024-03-08T13:26:48.457Z,16.37
2024-03-08T13:29:15.158Z,16.62
2024-03-08T13:31:41.904Z,16.90
2024-03-08T13:34:08.596Z,16.25
2024-03-08T13:36:35.302Z,16.91
2024-03-08T13:39:02.002Z,17.25
2024-03-08T13:41:31.677Z,17.23
2024-03-08T13:43:59.854Z,16.98
2024-03-08T13:46:26.752Z,16.97
2024-03-08T13:48:53.528Z,17.23
2024-03-08T13:51:20.276Z,17.38
2024-03-08T13:53:47.063Z,17.72
2024-03-08T13:56:13.792Z,18.21
2024-03-08T13:58:42.098Z,17.46
2024-03-08T14:01:08.929Z,16.96
2024-03-08T14:03:35.662Z,17.65
2024-03-08T14:06:02.475Z,18.45
2024-03-08T14:08:29.212Z,18.61
2024-03-08T14:10:56.149Z,18.35
2024-03-08T14:13:22.952Z,18.41
2024-03-08T14:15:50.972Z,18.26
2024-03-08T14:18:17.856Z,18.19
2024-03-08T14:20:44.542Z,18.47
2024-03-08T14:23:11.735Z,18.73
2024-03-08T14:25:38.579Z,18.22
2024-03-08T14:28:05.720Z,18.78
2024-03-08T14:30:32.443Z,18.78
2024-03-08T14:33:00.628Z,18.84
2024-03-08T14:35:27.383Z,19.07
2024-03-08T14:37:54.219Z,20.76
2024-03-08T14:40:21.010Z,20.86
2024-03-08T14:42:47.762Z,21.58
2024-03-08T14:45:14.577Z,22.37
2024-03-08T14:47:41.429Z,23.44
2024-03-08T14:50:10.248Z,24.13
2024-03-08T14:52:37.085Z,24.80
2024-03-08T14:55:04.244Z,24.66
2024-03-08T14:57:30.969Z,25.09
2024-03-08T14:59:57.712Z,24.82
2024-03-08T15:02:24.417Z,24.62
2024-03-08T15:04:51.141Z,23.88
2024-03-08T15:07:19.655Z,24.18
2024-03-08T15:09:46.369Z,24.42
2024-03-08T15:12:13.120Z,24.56
2024-03-08T15:14:41.033Z,24.50
2024-03-08T15:17:07.788Z,23.75
2024-03-08T15:19:34.630Z,24.01
2024-03-08T15:22:01.355Z,23.56
2024-03-08T15:24:29.410Z,23.20
2024-03-08T15:26:56.126Z,24.78
2024-03-08T15:29:22.858Z,25.11
2024-03-08T15:31:49.600Z,24.61
2024-03-08T15:34:16.383Z,25.34
2024-03-08T15:36:43.059Z,26.05
2024-03-08T15:39:09.747Z,25.60
2024-03-08T15:41:37.802Z,25.71
2024-03-08T15:44:04.618Z,25.28
2024-03-08T15:46:31.526Z,25.75
2024-03-08T15:48:58.426Z,24.74
2024-03-08T15:51:25.137Z,24.44
2024-03-08T15:53:51.879Z,25.10
2024-03-08T15:56:18.592Z,25.18
2024-03-08T15:58:46.687Z,24.91
2024-03-08T16:01:13.936Z,24.94
2024-03-08T16:03:40.637Z,24.91
2024-03-08T16:06:07.737Z,24.95
2024-03-08T16:08:34.644Z,25.57
2024-03-08T16:11:01.421Z,26.00
2024-03-08T16:13:28.361Z,24.71
2024-03-08T16:15:56.948Z,25.08
2024-03-08T16:18:23.968Z,25.44
2024-03-08T16:20:50.852Z,25.59
2024-03-08T16:23:17.661Z,24.56
2024-03-08T16:25:44.452Z,24.43
2024-03-08T16:28:11.482Z,24.71
2024-03-08T16:30:38.296Z,24.13
2024-03-08T16:33:06.558Z,23.72
2024-03-08T16:35:33.337Z,22.70
2024-03-08T16:38:00.169Z,22.33
2024-03-08T16:40:27.012Z,21.77
2024-03-08T16:42:53.810Z,20.81
2024-03-08T16:45:20.820Z,20.80
2024-03-08T16:47:47.756Z,21.05
2024-03-08T16:50:17.866Z,21.21
2024-03-08T16:52:44.626Z,21.26
2024-03-08T16:55:11.906Z,20.77
2024-03-08T16:57:38.686Z,21.97
2024-03-08T17:00:06.865Z,21.39
2024-03-08T17:02:33.710Z,21.36
2024-03-08T17:05:00.464Z,21.20
2024-03-08T17:07:28.630Z,20.80
2024-03-08T17:09:55.366Z,21.35
2024-03-08T17:12:22.102Z,20.99
2024-03-08T17:14:48.841Z,21.01
2024-03-08T17:17:15.748Z,20.81
2024-03-08T17:19:42.538Z,20.51
2024-03-08T17:22:09.497Z,21.84
2024-03-08T17:24:37.690Z,21.81
2024-03-08T17:27:04.425Z,21.92
2024-03-08T17:29:31.224Z,21.43
2024-03-08T17:31:58.109Z,22.10
2024-03-08T17:34:24.889Z,22.12
2024-03-08T17:36:51.569Z,22.00
2024-03-08T17:39:18.362Z,21.87
2024-03-08T17:41:47.131Z,21.78
2024-03-08T17:44:13.908Z,21.96
2024-03-08T17:46:40.701Z,21.44
2024-03-08T17:49:07.506Z,22.12
2024-03-08T17:51:35.610Z,21.86
2024-03-08T17:54:02.368Z,22.03
2024-03-08T17:56:29.044Z,21.73
2024-03-08T17:58:57.163Z,20.65
2024-03-08T18:01:24.121Z,21.46
2024-03-08T18:03:50.931Z,20.87
2024-03-08T18:06:17.674Z,21.47
2024-03-08T18:08:44.403Z,21.39
2024-03-08T18:11:11.208Z,21.13
2024-03-08T18:13:38.126Z,21.36
2024-03-08T18:16:07.371Z,21.40
2024-03-08T18:18:34.112Z,22.99
2024-03-08T18:21:00.868Z,22.19
2024-03-08T18:23:27.930Z,22.56
2024-03-08T18:25:54.722Z,22.28
2024-03-08T18:28:21.468Z,23.87
2024-03-08T18:30:48.412Z,24.04
2024-03-08T18:33:16.646Z,24.02
2024-03-08T18:35:43.387Z,23.76
2024-03-08T18:38:10.316Z,24.52
2024-03-08T18:40:37.529Z,23.94
2024-03-08T18:43:04.596Z,24.40
2024-03-08T18:45:31.290Z,24.85
2024-03-08T18:47:58.122Z,24.55
2024-03-08T18:50:26.874Z,25.19
2024-03-08T18:52:53.713Z,25.14
2024-03-08T18:55:20.806Z,25.33
2024-03-08T18:57:47.786Z,26.78
2024-03-08T19:00:15.417Z,26.66
2024-03-08T19:02:42.196Z,27.09
2024-03-08T19:05:09.066Z,26.84
2024-03-08T19:07:37.157Z,27.19
2024-03-08T19:10:04.348Z,26.50
2024-03-08T19:12:31.148Z,26.29
2024-03-08T19:14:57.930Z,25.83
2024-03-08T19:17:24.696Z,25.40
2024-03-08T19:19:51.400Z,25.64
2024-03-08T19:22:18.178Z,25.35
2024-03-08T19:24:46.266Z,25.35
2024-03-08T19:27:12.999Z,25.91
2024-03-08T19:29:39.718Z,26.68
2024-03-08T19:32:07.497Z,26.56
2024-03-08T19:34:34.282Z,26.49
2024-03-08T19:37:01.062Z,26.21
2024-03-08T19:39:27.810Z,25.59
2024-03-08T19:41:55.960Z,25.22
2024-03-08T19:44:22.729Z,25.73
2024-03-08T19:46:49.448Z,26.04
2024-03-08T19:49:16.303Z,25.43
2024-03-08T19:51:42.990Z,26.56
2024-03-08T19:54:09.745Z,26.08
2024-03-08T19:56:36.431Z,24.99
2024-03-08T19:59:04.570Z,24.14
2024-03-08T20:01:31.423Z,25.98
2024-03-08T20:03:58.175Z,26.13
2024-03-08T20:06:24.926Z,25.25
2024-03-08T20:08:51.688Z,25.12
2024-03-08T20:11:18.452Z,25.54
2024-03-08T20:13:45.361Z,25.12
2024-03-08T20:16:13.476Z,26.01
2024-03-08T20:18:40.354Z,25.06
2024-03-08T20:21:07.135Z,24.73
2024-03-08T20:23:33.904Z,24.49
2024-03-08T20:26:00.648Z,25.35
2024-03-08T20:28:27.422Z,25.34
2024-03-08T20:30:54.125Z,24.85
2024-03-08T20:33:22.204Z,25.44
2024-03-08T20:35:48.935Z,25.21
2024-03-08T20:38:15.642Z,24.56
2024-03-08T20:40:42.476Z,24.58
2024-03-08T20:43:09.408Z,24.79
2024-03-08T20:45:36.156Z,25.54
2024-03-08T20:48:02.904Z,25.33
2024-03-08T20:50:30.976Z,25.39
2024-03-08T20:52:58.062Z,25.24
2024-03-08T20:55:24.862Z,25.01
2024-03-08T20:57:52.336Z,26.12
2024-03-08T21:00:19.924Z,25.89
2024-03-08T21:02:46.998Z,26.10
2024-03-08T21:05:13.801Z,25.22
2024-03-08T21:07:41.884Z,26.35
2024-03-08T21:10:08.940Z,26.59
2024-03-08T21:12:35.693Z,26.13
2024-03-08T21:15:02.443Z,26.12
2024-03-08T21:17:29.252Z,26.54
2024-03-08T21:19:55.991Z,26.36
2024-03-08T21:22:22.770Z,26.91
2024-03-08T21:24:50.941Z,27.14
2024-03-08T21:27:17.713Z,26.43
2024-03-08T21:29:44.413Z,26.47
2024-03-08T21:32:11.320Z,26.85
2024-03-08T21:34:40.029Z,26.94
2024-03-08T21:37:06.776Z,26.77
2024-03-08T21:39:33.468Z,27.87
2024-03-08T21:42:01.527Z,27.35
2024-03-08T21:44:28.328Z,27.67
2024-03-08T21:46:55.115Z,27.45
2024-03-08T21:49:21.882Z,27.04
2024-03-08T21:51:48.773Z,26.81
2024-03-08T21:54:15.566Z,28.79
2024-03-08T21:56:42.363Z,27.20
2024-03-08T21:59:10.601Z,27.51
2024-03-08T22:01:37.610Z,27.73
2024-03-08T22:04:04.714Z,27.31
2024-03-08T22:06:31.498Z,26.87
2024-03-08T22:08:58.217Z,27.13
2024-03-08T22:11:25.114Z,27.35
2024-03-08T22:13:51.955Z,27.92
2024-03-08T22:16:20.135Z,28.33
2024-03-08T22:18:47.940Z,28.26
2024-03-08T22:21:14.696Z,27.55
2024-03-08T22:23:41.466Z,27.05
2024-03-08T22:26:08.367Z,27.98
2024-03-08T22:28:35.292Z,28.30
2024-03-08T22:31:02.137Z,27.71
2024-03-08T22:33:30.209Z,27.68
2024-03-08T22:35:56.932Z,27.59
2024-03-08T22:38:23.629Z,27.75
2024-03-08T22:40:50.409Z,27.08
2024-03-08T22:43:17.168Z,27.29
2024-03-08T22:45:43.964Z,27.37
2024-03-08T22:48:10.730Z,27.85
2024-03-08T22:50:38.780Z,28.62
2024-03-08T22:53:05.956Z,27.97
2024-03-08T22:55:32.714Z,27.84
2024-03-08T22:57:59.538Z,28.17
2024-03-08T23:00:27.533Z,29.39
2024-03-08T23:02:55.787Z,28.96
2024-03-08T23:05:22.934Z,28.51
2024-03-08T23:07:51.123Z,28.79
2024-03-08T23:10:17.872Z,28.55
2024-03-08T23:12:44.723Z,29.14
2024-03-08T23:15:11.773Z,29.29
2024-03-08T23:17:41.199Z,29.07
2024-03-08T23:20:08.914Z,28.77
2024-03-08T23:22:35.652Z,28.43
2024-03-08T23:25:04.404Z,28.55
2024-03-08T23:27:31.129Z,29.31
2024-03-08T23:29:57.867Z,28.89
2024-03-08T23:32:24.638Z,29.91
2024-03-08T23:34:51.360Z,32.20
2024-03-08T23:37:18.075Z,30.74
2024-03-08T23:39:44.764Z,30.52
2024-03-08T23:42:12.889Z,31.50
2024-03-08T23:44:41.890Z,30.51
2024-03-08T23:47:08.817Z,30.00
2024-03-08T23:49:35.542Z,30.05
2024-03-08T23:52:02.310Z,29.80
2024-03-08T23:54:29.090Z,30.26
2024-03-08T23:56:55.892Z,29.66
2024-03-08T23:59:23.979Z,29.84
